createdAt,value
2019-01-31T00:00:46.607Z,30.47
2019-01-31T00:06:14.268Z,37.70
2019-01-31T00:11:38.673Z,34.60
2019-01-31T00:23:34.512Z,32.00
2019-01-31T00:29:17.150Z,29.00
2019-01-31T00:35:02.694Z,28.03
2019-01-31T00:40:36.033Z,39.03
2019-01-31T00:46:11.146Z,34.60
2019-01-31T00:51:30.421Z,38.00
2019-01-31T00:57:02.864Z,40.00
2019-01-31T01:02:36.934Z,40.93
2019-01-31T01:08:20.329Z,38.00
2019-01-31T01:14:06.558Z,40.27
2019-01-31T01:20:08.340Z,33.03
2019-01-31T01:26:12.869Z,38.17
2019-01-31T01:31:47.624Z,41.63
2019-01-31T01:37:31.844Z,38.83
2019-01-31T01:43:16.005Z,41.43
2019-01-31T01:48:30.754Z,40.27
2019-01-31T01:54:07.962Z,36.60
2019-01-31T01:59:45.653Z,36.90
2019-01-31T02:05:32.681Z,36.60
2019-01-31T02:11:22.363Z,41.60
2019-01-31T02:16:51.688Z,37.83
2019-01-31T02:22:25.121Z,33.77
2019-01-31T02:28:16.450Z,39.50
2019-01-31T02:34:07.183Z,36.30
2019-01-31T02:39:43.075Z,33.70
2019-01-31T02:45:06.654Z,35.37
2019-01-31T02:51:08.123Z,26.13
2019-01-31T02:57:00.189Z,35.00
2019-01-31T03:02:26.950Z,34.40
2019-01-31T03:08:13.050Z,38.83
2019-01-31T03:13:54.542Z,42.70
2019-01-31T03:19:49.881Z,36.27
2019-01-31T03:25:35.649Z,40.90
2019-01-31T03:31:28.560Z,46.43
2019-01-31T03:37:15.750Z,42.17
2019-01-31T03:43:05.386Z,44.00
2019-01-31T03:48:50.176Z,46.20
2019-01-31T03:54:57.134Z,40.80
2019-01-31T04:00:26.712Z,36.73
2019-01-31T04:06:01.498Z,39.50
2019-01-31T04:11:08.675Z,45.80
2019-01-31T04:16:13.729Z,40.13
2019-01-31T04:21:27.899Z,44.70
2019-01-31T04:26:33.651Z,41.20
2019-01-31T04:31:38.924Z,38.97
2019-01-31T04:36:44.127Z,40.80
2019-01-31T04:41:49.436Z,40.00
2019-01-31T04:46:54.502Z,38.80
2019-01-31T04:52:00.689Z,46.10
2019-01-31T04:57:06.644Z,41.93
2019-01-31T05:02:17.822Z,41.90
2019-01-31T05:07:23.238Z,53.57
2019-01-31T05:12:28.657Z,42.50
2019-01-31T05:17:34.342Z,41.73
2019-01-31T05:22:39.583Z,47.83
2019-01-31T05:27:44.735Z,51.93
2019-01-31T05:32:50.276Z,48.03
2019-01-31T05:37:55.424Z,47.77
2019-01-31T05:43:00.966Z,43.60
2019-01-31T05:48:06.077Z,46.90
2019-01-31T05:53:12.030Z,43.27
2019-01-31T05:58:17.114Z,41.77
2019-01-31T06:03:22.480Z,45.50
2019-01-31T06:08:27.929Z,49.00
2019-01-31T06:13:33.113Z,43.60
2019-01-31T06:18:39.318Z,47.07
2019-01-31T06:23:44.631Z,44.83
2019-01-31T06:28:49.997Z,44.87
2019-01-31T06:33:55.514Z,46.73
2019-01-31T06:39:24.878Z,42.47
2019-01-31T06:44:30.254Z,41.63
2019-01-31T06:49:35.382Z,40.17
2019-01-31T06:54:40.966Z,43.23
2019-01-31T06:59:46.562Z,45.20
2019-01-31T07:04:52.446Z,45.87
2019-01-31T07:09:57.597Z,46.07
2019-01-31T07:15:03.274Z,41.03
2019-01-31T07:20:10.562Z,42.67
2019-01-31T07:25:18.380Z,42.53
2019-01-31T07:30:26.704Z,37.03
2019-01-31T07:35:30.861Z,37.77
2019-01-31T07:40:36.124Z,42.53
2019-01-31T07:45:41.416Z,39.53
2019-01-31T07:50:46.926Z,37.73
2019-01-31T07:55:51.971Z,37.87
2019-01-31T08:00:57.238Z,39.20
2019-01-31T08:06:02.276Z,32.83
2019-01-31T08:11:07.872Z,29.27
2019-01-31T08:16:13.003Z,43.77
2019-01-31T08:21:18.297Z,34.93
2019-01-31T08:26:23.467Z,27.53
2019-01-31T08:31:28.622Z,26.33
2019-01-31T08:36:34.486Z,27.70
2019-01-31T08:41:39.628Z,22.83
2019-01-31T08:46:44.742Z,31.17
2019-01-31T08:51:49.787Z,29.27
2019-01-31T08:56:55.262Z,25.80
2019-01-31T09:02:06.742Z,23.80
2019-01-31T09:07:11.851Z,28.77
2019-01-31T09:12:17.050Z,20.17
2019-01-31T09:17:22.634Z,19.57
2019-01-31T09:28:59.232Z,29.20
2019-01-31T09:34:39.448Z,29.43
2019-01-31T09:40:18.980Z,21.13
2019-01-31T09:45:49.622Z,28.60
2019-01-31T09:51:40.450Z,29.80
2019-01-31T09:57:21.753Z,20.83
2019-01-31T10:03:07.120Z,17.60
2019-01-31T10:09:05.608Z,16.53
2019-01-31T10:14:41.606Z,21.60
2019-01-31T10:20:06.776Z,21.20
2019-01-31T10:25:56.310Z,16.93
2019-01-31T10:31:28.214Z,17.40
2019-01-31T10:37:15.709Z,19.17
2019-01-31T10:43:00.140Z,18.63
2019-01-31T10:48:25.072Z,15.13
2019-01-31T10:54:20.725Z,16.33
2019-01-31T11:00:23.440Z,14.77
2019-01-31T11:05:58.981Z,21.73
2019-01-31T11:11:33.026Z,15.33
2019-01-31T11:17:14.139Z,18.13
2019-01-31T11:23:03.169Z,23.80
2019-01-31T11:28:18.364Z,22.13
2019-01-31T11:34:09.956Z,21.13
2019-01-31T11:39:55.036Z,24.43
2019-01-31T11:45:56.497Z,23.97
2019-01-31T11:51:38.498Z,18.50
2019-01-31T11:57:40.149Z,21.00
2019-01-31T12:02:54.694Z,18.20
2019-01-31T12:07:51.980Z,17.02
2019-01-31T12:12:57.504Z,17.00
2019-01-31T12:18:04.465Z,16.48
2019-01-31T12:23:10.715Z,15.30
2019-01-31T12:28:17.174Z,13.93
2019-01-31T12:33:22.428Z,16.37
2019-01-31T12:38:36.479Z,14.93
2019-01-31T12:43:35.532Z,15.38
2019-01-31T12:48:40.730Z,14.15
2019-01-31T12:53:46.082Z,14.07
2019-01-31T12:58:51.423Z,16.90
2019-01-31T13:03:58.161Z,16.63
2019-01-31T13:09:04.773Z,18.83
2019-01-31T13:14:11.550Z,16.47
2019-01-31T13:19:48.581Z,15.30
2019-01-31T13:30:54.853Z,18.03
2019-01-31T13:36:20.178Z,17.60
2019-01-31T13:41:25.624Z,16.90
2019-01-31T13:46:32.773Z,20.53
2019-01-31T13:51:45.665Z,25.33
2019-01-31T13:57:28.069Z,19.50
2019-01-31T14:02:59.526Z,18.13
2019-01-31T14:08:06.266Z,16.30
2019-01-31T14:13:15.251Z,22.77
2019-01-31T14:18:20.840Z,23.90
2019-01-31T14:23:26.083Z,17.00
2019-01-31T14:28:32.364Z,21.57
2019-01-31T14:33:37.648Z,18.10
2019-01-31T14:38:43.175Z,24.80
2019-01-31T14:43:48.481Z,26.83
2019-01-31T14:48:56.206Z,26.40
2019-01-31T14:54:01.882Z,21.03
2019-01-31T14:59:07.582Z,22.30
2019-01-31T15:04:12.811Z,21.47
2019-01-31T15:09:18.071Z,18.67
2019-01-31T15:14:32.023Z,23.80
2019-01-31T15:19:33.130Z,24.47
2019-01-31T15:24:38.316Z,22.63
2019-01-31T15:29:44.751Z,19.93
2019-01-31T15:34:49.923Z,24.30
2019-01-31T15:39:55.331Z,23.30
2019-01-31T15:45:01.888Z,24.10
2019-01-31T15:50:08.764Z,27.30
2019-01-31T15:55:15.941Z,27.40
2019-01-31T16:00:32.951Z,26.77
2019-01-31T16:05:38.232Z,25.20
2019-01-31T16:10:43.728Z,23.63
2019-01-31T16:15:48.985Z,27.70
2019-01-31T16:20:59.264Z,23.53
2019-01-31T16:26:07.676Z,24.63
2019-01-31T16:31:13.090Z,25.03
2019-01-31T16:36:21.706Z,26.40
2019-01-31T16:41:27.984Z,23.90
2019-01-31T16:46:36.313Z,24.83
2019-01-31T16:51:40.808Z,26.47
2019-01-31T16:56:46.178Z,25.57
2019-01-31T17:01:51.504Z,31.23
2019-01-31T17:06:57.124Z,31.53
2019-01-31T17:12:02.330Z,27.43
2019-01-31T17:17:08.650Z,26.17
2019-01-31T17:22:19.513Z,24.63
2019-01-31T17:27:25.513Z,26.27
2019-01-31T17:32:31.780Z,28.23
2019-01-31T17:37:37.227Z,27.67
2019-01-31T17:42:42.983Z,26.73
2019-01-31T17:47:48.577Z,26.77
2019-01-31T17:52:53.865Z,30.00
2019-01-31T17:57:59.174Z,29.83
2019-01-31T18:03:04.578Z,28.73
2019-01-31T18:08:09.988Z,35.23
2019-01-31T18:13:15.945Z,36.73
2019-01-31T18:18:21.385Z,33.93
2019-01-31T18:23:27.194Z,34.63
2019-01-31T18:28:32.559Z,32.80
2019-01-31T18:33:37.961Z,28.83
2019-01-31T18:38:44.570Z,33.70
2019-01-31T18:43:50.338Z,36.40
2019-01-31T18:48:57.538Z,36.17
2019-01-31T18:54:03.052Z,33.50
2019-01-31T18:59:08.221Z,37.10
2019-01-31T19:04:13.887Z,39.07
2019-01-31T19:09:19.243Z,33.70
2019-01-31T19:14:26.051Z,36.77
2019-01-31T19:19:32.359Z,41.63
2019-01-31T19:24:38.214Z,34.93
2019-01-31T19:29:44.418Z,37.67
2019-01-31T19:34:50.018Z,37.20
2019-01-31T19:39:55.378Z,37.73
2019-01-31T19:45:01.672Z,33.00
2019-01-31T19:50:08.479Z,43.93
2019-01-31T19:55:13.832Z,39.30
2019-01-31T20:00:20.617Z,38.70
2019-01-31T20:05:27.140Z,35.40
2019-01-31T20:10:32.379Z,38.33
2019-01-31T20:15:37.526Z,32.67
2019-01-31T20:20:43.033Z,41.30
2019-01-31T20:25:48.550Z,46.53
2019-01-31T20:30:53.868Z,50.30
2019-01-31T20:35:59.450Z,43.23
2019-01-31T20:41:04.922Z,43.70
2019-01-31T20:46:10.177Z,48.97
2019-01-31T20:51:15.462Z,45.43
2019-01-31T20:56:20.839Z,47.10
2019-01-31T21:01:26.101Z,46.90
2019-01-31T21:06:41.091Z,55.20
2019-01-31T21:11:38.138Z,47.57
2019-01-31T21:16:52.599Z,48.73
2019-01-31T21:22:01.122Z,53.90
2019-01-31T21:27:11.570Z,46.80
2019-01-31T21:32:19.746Z,49.57
2019-01-31T21:37:33.814Z,52.70
2019-01-31T21:42:39.107Z,51.67
2019-01-31T21:47:44.325Z,52.50
2019-01-31T21:52:49.494Z,42.77
2019-01-31T21:57:54.607Z,45.20
2019-01-31T22:02:59.882Z,53.90
2019-01-31T22:08:05.182Z,57.47
2019-01-31T22:13:10.355Z,58.57
2019-01-31T22:18:17.894Z,55.27
2019-01-31T22:23:22.340Z,56.70
2019-01-31T22:28:27.587Z,61.37
2019-01-31T22:33:32.811Z,58.53
2019-01-31T22:38:38.051Z,56.33
2019-01-31T22:43:43.173Z,59.43
2019-01-31T22:48:48.586Z,60.80
2019-01-31T22:53:54.023Z,61.57
2019-01-31T22:58:59.181Z,60.60
2019-01-31T23:04:04.956Z,56.43
2019-01-31T23:09:12.667Z,50.73
2019-01-31T23:14:17.955Z,60.23
2019-01-31T23:19:23.299Z,55.50
2019-01-31T23:24:28.450Z,51.60
2019-01-31T23:29:33.663Z,51.87
2019-01-31T23:34:38.802Z,57.60
2019-01-31T23:39:49.009Z,48.03
2019-01-31T23:44:54.141Z,54.20
2019-01-31T23:49:59.217Z,51.40
2019-01-31T23:55:05.073Z,61.30
